Terminal Aerodrome Forecast
Issued by NWS

Home | Current Version | Previous Version | Text Only | Print | Product List | Glossary On
Versions: 1 2 3 4 5 6 7 8 9 10 11 12
000
FTUS44 KEPZ 231724
TAFDMN
TAF
KDMN 231724Z 2318/2418 26027G37KT P6SM SCT070 SCT100
      TEMPO 2319/2323 2SM BLDU
     FM240300 28015G25KT P6SM SKC=

USA.gov is the U.S. government's official web portal to all federal, state and local government web resources and services.